createdAt,value
2019-03-29T00:05:51.956Z,99.90
2019-03-29T00:15:57.667Z,99.90
2019-03-29T00:26:03.199Z,99.90
2019-03-29T00:36:09.841Z,99.90
2019-03-29T00:46:16.022Z,99.90
2019-03-29T00:56:21.595Z,99.90
2019-03-29T01:06:27.260Z,99.90
2019-03-29T01:16:32.851Z,99.90
2019-03-29T01:26:38.516Z,99.90
2019-03-29T01:36:44.277Z,99.90
2019-03-29T01:46:50.842Z,99.90
2019-03-29T01:56:56.649Z,99.90
2019-03-29T02:07:02.233Z,99.90
2019-03-29T02:17:07.905Z,99.90
2019-03-29T02:27:13.603Z,99.90
2019-03-29T02:37:19.267Z,99.90
2019-03-29T02:47:24.967Z,99.90
2019-03-29T02:57:30.748Z,99.90
2019-03-29T03:07:36.304Z,99.90
2019-03-29T03:17:41.893Z,99.90
2019-03-29T03:27:47.527Z,99.90
2019-03-29T03:37:53.283Z,99.90
2019-03-29T03:47:59.003Z,99.90
2019-03-29T03:58:05.347Z,99.90
2019-03-29T04:08:11.050Z,99.90
2019-03-29T04:18:16.916Z,99.90
2019-03-29T04:28:22.647Z,99.90
2019-03-29T04:38:28.327Z,99.90
2019-03-29T04:48:34.013Z,99.90
2019-03-29T04:58:39.687Z,99.90
2019-03-29T05:08:45.360Z,99.90
2019-03-29T05:18:51.048Z,99.90
2019-03-29T05:28:56.984Z,99.90
2019-03-29T05:39:02.656Z,99.90
2019-03-29T05:49:09.349Z,99.90
2019-03-29T05:59:15.884Z,99.90
2019-03-29T06:09:21.637Z,99.90
2019-03-29T06:19:27.283Z,99.90
2019-03-29T06:29:37.321Z,99.90
2019-03-29T06:39:43.445Z,99.90
2019-03-29T06:49:49.045Z,99.90
2019-03-29T06:59:54.575Z,99.90
2019-03-29T07:20:07.283Z,99.90
2019-03-29T07:30:13.860Z,99.90
2019-03-29T07:40:19.481Z,99.90
2019-03-29T07:50:24.998Z,99.90
2019-03-29T08:00:31.503Z,99.80
2019-03-29T08:10:37.140Z,99.40
2019-03-29T08:20:44.534Z,99.20
2019-03-29T08:30:49.783Z,97.60
2019-03-29T08:40:55.310Z,98.30
2019-03-29T08:51:05.633Z,97.90
2019-03-29T09:01:11.228Z,96.70
2019-03-29T09:11:16.829Z,93.90
2019-03-29T09:21:22.449Z,90.60
2019-03-29T09:31:28.107Z,83.90
2019-03-29T09:41:33.826Z,81.20
2019-03-29T09:51:39.663Z,78.30
2019-03-29T10:01:45.473Z,78.30
2019-03-29T10:11:51.115Z,78.60
2019-03-29T10:21:56.663Z,75.30
2019-03-29T10:32:05.496Z,75.70
2019-03-29T10:42:09.549Z,72.30
2019-03-29T10:52:15.117Z,73.40
2019-03-29T11:02:23.597Z,77.00
2019-03-29T11:12:29.288Z,75.80
2019-03-29T11:22:34.939Z,74.40
2019-03-29T11:32:40.598Z,71.30
2019-03-29T11:42:46.328Z,70.40
2019-03-29T11:52:51.999Z,68.60
2019-03-29T12:02:57.605Z,69.20
2019-03-29T12:13:18.971Z,67.00
2019-03-29T12:34:23.258Z,63.00
2019-03-29T12:44:28.957Z,62.80
2019-03-29T12:54:34.678Z,61.00
2019-03-29T13:04:41.243Z,59.00
2019-03-29T13:14:46.835Z,60.80
2019-03-29T13:24:52.444Z,66.30
2019-03-29T13:34:58.079Z,65.10
2019-03-29T13:45:03.687Z,64.80
2019-03-29T13:55:10.362Z,65.50
2019-03-29T14:05:16.117Z,63.90
2019-03-29T14:15:28.240Z,64.80
2019-03-29T14:25:33.844Z,64.70
2019-03-29T14:35:39.691Z,63.20
2019-03-29T14:45:45.312Z,64.90
2019-03-29T14:55:51.038Z,67.70
2019-03-29T15:06:15.438Z,67.10
2019-03-29T15:16:22.312Z,67.00
2019-03-29T15:26:28.019Z,69.40
2019-03-29T15:36:33.586Z,65.00
2019-03-29T15:46:39.721Z,64.20
2019-03-29T15:56:45.521Z,65.30
2019-03-29T16:06:51.078Z,65.20
2019-03-29T16:16:56.704Z,66.70
2019-03-29T16:27:02.229Z,69.20
2019-03-29T16:37:09.533Z,69.20
2019-03-29T16:47:15.346Z,71.30
2019-03-29T16:57:20.854Z,74.40
2019-03-29T17:07:26.517Z,77.00
2019-03-29T17:17:32.238Z,80.00
2019-03-29T17:27:37.865Z,83.00
2019-03-29T17:37:43.766Z,84.80
2019-03-29T17:47:49.837Z,87.30
2019-03-29T18:08:28.091Z,90.50
2019-03-29T18:18:34.115Z,91.20
2019-03-29T18:28:40.159Z,92.10
2019-03-29T18:38:47.691Z,92.80
2019-03-29T18:48:53.718Z,93.50
2019-03-29T18:58:59.641Z,94.30
2019-03-29T19:09:37.443Z,95.20
2019-03-29T19:30:34.777Z,95.60
2019-03-29T19:40:40.957Z,95.60
2019-03-29T19:50:47.274Z,95.60
2019-03-29T20:01:00.405Z,96.30
2019-03-29T20:11:02.971Z,97.00
2019-03-29T20:21:20.864Z,97.30
2019-03-29T20:31:30.850Z,97.30
2019-03-29T20:41:37.104Z,97.50
2019-03-29T20:51:43.038Z,97.60
2019-03-29T21:01:52.732Z,97.60
2019-03-29T21:11:57.771Z,98.10
2019-03-29T21:22:03.761Z,98.10
2019-03-29T21:32:12.265Z,98.80
2019-03-29T21:42:19.861Z,98.90
2019-03-29T21:52:26.542Z,99.80
2019-03-29T22:02:33.078Z,99.60
2019-03-29T22:12:39.077Z,99.70
2019-03-29T22:22:46.250Z,99.80
2019-03-29T22:32:51.878Z,99.90
2019-03-29T22:42:57.530Z,99.90
2019-03-29T22:53:03.184Z,99.90
2019-03-29T23:03:09.013Z,99.90
2019-03-29T23:13:14.631Z,99.90
2019-03-29T23:23:20.173Z,99.90
2019-03-29T23:33:25.906Z,99.90
2019-03-29T23:43:31.633Z,99.90
2019-03-29T23:53:38.525Z,99.90
